sensor_id;sensor_type;location;lat;lon;timestamp;P1;durP1;ratioP1;P2;durP2;ratioP2
67867;SDS011;54672;46.096;14.470;2023-05-23T00:02:13;14.93;;;9.13;;
67867;SDS011;54672;46.096;14.470;2023-05-23T00:04:39;14.52;;;9.30;;
67867;SDS011;54672;46.096;14.470;2023-05-23T00:07:05;15.20;;;8.60;;
67867;SDS011;54672;46.096;14.470;2023-05-23T00:09:30;17.05;;;9.45;;
67867;SDS011;54672;46.096;14.470;2023-05-23T00:11:56;14.23;;;8.60;;
67867;SDS011;54672;46.096;14.470;2023-05-23T00:14:21;16.38;;;9.20;;
67867;SDS011;54672;46.096;14.470;2023-05-23T00:16:47;15.02;;;9.45;;
67867;SDS011;54672;46.096;14.470;2023-05-23T00:19:13;16.83;;;8.63;;
67867;SDS011;54672;46.096;14.470;2023-05-23T00:21:40;15.68;;;9.20;;
67867;SDS011;54672;46.096;14.470;2023-05-23T00:24:07;13.75;;;8.75;;
67867;SDS011;54672;46.096;14.470;2023-05-23T00:26:34;14.80;;;9.30;;
67867;SDS011;54672;46.096;14.470;2023-05-23T00:28:59;17.42;;;9.48;;
67867;SDS011;54672;46.096;14.470;2023-05-23T00:31:24;16.25;;;9.48;;
67867;SDS011;54672;46.096;14.470;2023-05-23T00:33:50;13.65;;;8.98;;
67867;SDS011;54672;46.096;14.470;2023-05-23T00:36:15;14.77;;;8.55;;
67867;SDS011;54672;46.096;14.470;2023-05-23T00:38:42;16.60;;;9.25;;
67867;SDS011;54672;46.096;14.470;2023-05-23T00:41:09;13.02;;;8.50;;
67867;SDS011;54672;46.096;14.470;2023-05-23T00:43:35;15.50;;;9.40;;
67867;SDS011;54672;46.096;14.470;2023-05-23T00:46:00;14.52;;;9.20;;
67867;SDS011;54672;46.096;14.470;2023-05-23T00:48:26;15.07;;;9.57;;
67867;SDS011;54672;46.096;14.470;2023-05-23T00:50:52;13.60;;;8.98;;
67867;SDS011;54672;46.096;14.470;2023-05-23T00:53:18;15.43;;;9.02;;
67867;SDS011;54672;46.096;14.470;2023-05-23T00:55:44;19.17;;;9.55;;
67867;SDS011;54672;46.096;14.470;2023-05-23T00:58:10;14.00;;;9.18;;
67867;SDS011;54672;46.096;14.470;2023-05-23T01:00:37;15.05;;;8.95;;
67867;SDS011;54672;46.096;14.470;2023-05-23T01:03:02;15.23;;;8.90;;
67867;SDS011;54672;46.096;14.470;2023-05-23T01:05:29;15.02;;;8.88;;
67867;SDS011;54672;46.096;14.470;2023-05-23T01:07:54;15.50;;;8.85;;
67867;SDS011;54672;46.096;14.470;2023-05-23T01:10:24;13.90;;;8.32;;
67867;SDS011;54672;46.096;14.470;2023-05-23T01:21:32;14.13;;;8.65;;
67867;SDS011;54672;46.096;14.470;2023-05-23T01:29:33;14.50;;;9.48;;
67867;SDS011;54672;46.096;14.470;2023-05-23T01:32:02;14.85;;;8.82;;
67867;SDS011;54672;46.096;14.470;2023-05-23T01:34:32;17.88;;;9.43;;
67867;SDS011;54672;46.096;14.470;2023-05-23T01:36:59;14.57;;;9.35;;
67867;SDS011;54672;46.096;14.470;2023-05-23T01:39:24;16.23;;;9.65;;
67867;SDS011;54672;46.096;14.470;2023-05-23T01:41:50;15.63;;;9.02;;
67867;SDS011;54672;46.096;14.470;2023-05-23T01:44:17;16.52;;;9.23;;
67867;SDS011;54672;46.096;14.470;2023-05-23T01:46:43;15.27;;;9.30;;
67867;SDS011;54672;46.096;14.470;2023-05-23T01:49:10;18.08;;;9.82;;
67867;SDS011;54672;46.096;14.470;2023-05-23T01:51:37;14.90;;;9.68;;
67867;SDS011;54672;46.096;14.470;2023-05-23T01:54:04;15.40;;;9.82;;
67867;SDS011;54672;46.096;14.470;2023-05-23T01:56:29;15.52;;;9.68;;
67867;SDS011;54672;46.096;14.470;2023-05-23T01:58:55;18.33;;;9.88;;
67867;SDS011;54672;46.096;14.470;2023-05-23T02:01:21;15.35;;;9.57;;
67867;SDS011;54672;46.096;14.470;2023-05-23T02:03:46;16.50;;;9.80;;
67867;SDS011;54672;46.096;14.470;2023-05-23T02:06:12;17.90;;;10.52;;
67867;SDS011;54672;46.096;14.470;2023-05-23T02:08:38;17.98;;;10.15;;
67867;SDS011;54672;46.096;14.470;2023-05-23T02:11:03;16.48;;;9.45;;
67867;SDS011;54672;46.096;14.470;2023-05-23T02:13:28;17.88;;;9.63;;
67867;SDS011;54672;46.096;14.470;2023-05-23T02:15:54;17.67;;;9.48;;
67867;SDS011;54672;46.096;14.470;2023-05-23T02:18:19;17.95;;;10.20;;
67867;SDS011;54672;46.096;14.470;2023-05-23T02:20:45;18.10;;;9.57;;
67867;SDS011;54672;46.096;14.470;2023-05-23T02:23:11;15.70;;;9.98;;
67867;SDS011;54672;46.096;14.470;2023-05-23T02:25:36;19.98;;;10.15;;
67867;SDS011;54672;46.096;14.470;2023-05-23T02:28:02;18.48;;;10.20;;
67867;SDS011;54672;46.096;14.470;2023-05-23T02:30:27;19.33;;;10.80;;
67867;SDS011;54672;46.096;14.470;2023-05-23T02:32:52;17.10;;;9.55;;
67867;SDS011;54672;46.096;14.470;2023-05-23T02:35:18;18.38;;;9.55;;
67867;SDS011;54672;46.096;14.470;2023-05-23T02:37:43;18.65;;;10.10;;
67867;SDS011;54672;46.096;14.470;2023-05-23T02:40:09;16.45;;;9.27;;
67867;SDS011;54672;46.096;14.470;2023-05-23T02:42:34;16.13;;;9.63;;
67867;SDS011;54672;46.096;14.470;2023-05-23T02:45:00;15.93;;;9.77;;
67867;SDS011;54672;46.096;14.470;2023-05-23T02:47:25;15.27;;;9.82;;
67867;SDS011;54672;46.096;14.470;2023-05-23T02:49:51;15.65;;;9.55;;
67867;SDS011;54672;46.096;14.470;2023-05-23T02:52:16;19.95;;;10.40;;
67867;SDS011;54672;46.096;14.470;2023-05-23T02:54:41;18.98;;;10.10;;
67867;SDS011;54672;46.096;14.470;2023-05-23T02:57:07;17.38;;;10.88;;
67867;SDS011;54672;46.096;14.470;2023-05-23T02:59:32;19.08;;;10.63;;
67867;SDS011;54672;46.096;14.470;2023-05-23T03:01:58;21.27;;;11.05;;
67867;SDS011;54672;46.096;14.470;2023-05-23T03:04:23;19.55;;;11.02;;
67867;SDS011;54672;46.096;14.470;2023-05-23T03:06:49;20.23;;;11.77;;
67867;SDS011;54672;46.096;14.470;2023-05-23T03:09:18;16.58;;;10.10;;
67867;SDS011;54672;46.096;14.470;2023-05-23T03:11:43;21.92;;;11.15;;
67867;SDS011;54672;46.096;14.470;2023-05-23T03:14:09;20.42;;;10.93;;
67867;SDS011;54672;46.096;14.470;2023-05-23T03:16:34;19.98;;;10.85;;
67867;SDS011;54672;46.096;14.470;2023-05-23T03:18:59;19.35;;;10.65;;
67867;SDS011;54672;46.096;14.470;2023-05-23T03:21:25;18.08;;;10.48;;
67867;SDS011;54672;46.096;14.470;2023-05-23T03:23:50;24.17;;;11.32;;
67867;SDS011;54672;46.096;14.470;2023-05-23T03:26:16;18.63;;;10.18;;
67867;SDS011;54672;46.096;14.470;2023-05-23T03:28:41;19.13;;;10.73;;
67867;SDS011;54672;46.096;14.470;2023-05-23T03:31:06;20.17;;;11.18;;
67867;SDS011;54672;46.096;14.470;2023-05-23T03:33:32;20.75;;;11.18;;
67867;SDS011;54672;46.096;14.470;2023-05-23T03:35:57;17.77;;;10.95;;
67867;SDS011;54672;46.096;14.470;2023-05-23T03:38:23;19.42;;;10.85;;
67867;SDS011;54672;46.096;14.470;2023-05-23T03:40:48;18.27;;;9.40;;
67867;SDS011;54672;46.096;14.470;2023-05-23T03:43:13;19.27;;;9.93;;
67867;SDS011;54672;46.096;14.470;2023-05-23T03:45:39;21.45;;;11.00;;
67867;SDS011;54672;46.096;14.470;2023-05-23T03:48:04;17.33;;;10.30;;
67867;SDS011;54672;46.096;14.470;2023-05-23T03:50:30;17.75;;;10.27;;
67867;SDS011;54672;46.096;14.470;2023-05-23T03:52:55;18.55;;;10.25;;
67867;SDS011;54672;46.096;14.470;2023-05-23T03:55:21;17.33;;;10.35;;
67867;SDS011;54672;46.096;14.470;2023-05-23T03:57:48;15.52;;;10.00;;
67867;SDS011;54672;46.096;14.470;2023-05-23T04:00:14;18.33;;;9.50;;
67867;SDS011;54672;46.096;14.470;2023-05-23T04:02:39;14.00;;;9.43;;
67867;SDS011;54672;46.096;14.470;2023-05-23T04:05:05;16.60;;;9.30;;
67867;SDS011;54672;46.096;14.470;2023-05-23T04:07:31;16.40;;;9.55;;
67867;SDS011;54672;46.096;14.470;2023-05-23T04:10:00;14.00;;;8.80;;
67867;SDS011;54672;46.096;14.470;2023-05-23T04:12:26;14.05;;;8.68;;
67867;SDS011;54672;46.096;14.470;2023-05-23T04:14:54;13.23;;;8.35;;
67867;SDS011;54672;46.096;14.470;2023-05-23T04:17:20;15.10;;;8.32;;
67867;SDS011;54672;46.096;14.470;2023-05-23T04:19:46;15.50;;;8.90;;
67867;SDS011;54672;46.096;14.470;2023-05-23T04:22:12;13.13;;;7.55;;
67867;SDS011;54672;46.096;14.470;2023-05-23T04:24:37;11.93;;;8.25;;
67867;SDS011;54672;46.096;14.470;2023-05-23T04:27:02;11.75;;;7.57;;
67867;SDS011;54672;46.096;14.470;2023-05-23T04:29:28;12.13;;;8.25;;
67867;SDS011;54672;46.096;14.470;2023-05-23T04:31:55;13.52;;;8.18;;
67867;SDS011;54672;46.096;14.470;2023-05-23T04:34:21;14.80;;;8.10;;
67867;SDS011;54672;46.096;14.470;2023-05-23T04:36:47;13.77;;;8.20;;
67867;SDS011;54672;46.096;14.470;2023-05-23T04:39:13;13.63;;;7.93;;
67867;SDS011;54672;46.096;14.470;2023-05-23T04:41:39;12.57;;;8.20;;
67867;SDS011;54672;46.096;14.470;2023-05-23T04:44:06;11.23;;;7.75;;
67867;SDS011;54672;46.096;14.470;2023-05-23T04:46:34;15.98;;;8.48;;
67867;SDS011;54672;46.096;14.470;2023-05-23T04:49:00;12.48;;;8.25;;
67867;SDS011;54672;46.096;14.470;2023-05-23T04:51:26;15.57;;;8.48;;
67867;SDS011;54672;46.096;14.470;2023-05-23T04:53:51;13.98;;;8.43;;
67867;SDS011;54672;46.096;14.470;2023-05-23T04:56:17;12.23;;;8.35;;
67867;SDS011;54672;46.096;14.470;2023-05-23T04:58:44;14.70;;;9.00;;
67867;SDS011;54672;46.096;14.470;2023-05-23T05:01:13;13.43;;;8.38;;
67867;SDS011;54672;46.096;14.470;2023-05-23T05:03:38;13.02;;;8.88;;
67867;SDS011;54672;46.096;14.470;2023-05-23T05:06:04;14.32;;;8.57;;
67867;SDS011;54672;46.096;14.470;2023-05-23T05:08:30;13.23;;;8.75;;
67867;SDS011;54672;46.096;14.470;2023-05-23T05:10:56;11.93;;;8.23;;
67867;SDS011;54672;46.096;14.470;2023-05-23T05:13:21;13.65;;;7.97;;
67867;SDS011;54672;46.096;14.470;2023-05-23T05:15:47;12.43;;;9.10;;
67867;SDS011;54672;46.096;14.470;2023-05-23T05:18:12;12.38;;;7.88;;
67867;SDS011;54672;46.096;14.470;2023-05-23T05:20:38;9.93;;;7.72;;
67867;SDS011;54672;46.096;14.470;2023-05-23T05:23:03;16.15;;;7.82;;
67867;SDS011;54672;46.096;14.470;2023-05-23T05:25:29;11.98;;;8.45;;
67867;SDS011;54672;46.096;14.470;2023-05-23T05:27:59;8.80;;;7.70;;
67867;SDS011;54672;46.096;14.470;2023-05-23T05:30:30;14.25;;;8.43;;
67867;SDS011;54672;46.096;14.470;2023-05-23T05:32:59;11.95;;;8.07;;
67867;SDS011;54672;46.096;14.470;2023-05-23T05:35:32;14.02;;;9.13;;
67867;SDS011;54672;46.096;14.470;2023-05-23T05:37:58;12.82;;;9.50;;
67867;SDS011;54672;46.096;14.470;2023-05-23T05:40:24;14.68;;;8.75;;
67867;SDS011;54672;46.096;14.470;2023-05-23T05:42:49;14.50;;;8.45;;
67867;SDS011;54672;46.096;14.470;2023-05-23T05:45:15;16.33;;;8.32;;
67867;SDS011;54672;46.096;14.470;2023-05-23T05:47:40;11.50;;;9.13;;
67867;SDS011;54672;46.096;14.470;2023-05-23T05:50:06;12.65;;;8.73;;
67867;SDS011;54672;46.096;14.470;2023-05-23T05:52:34;15.20;;;9.02;;
67867;SDS011;54672;46.096;14.470;2023-05-23T05:55:03;12.10;;;8.70;;
67867;SDS011;54672;46.096;14.470;2023-05-23T05:57:30;11.50;;;9.32;;
67867;SDS011;54672;46.096;14.470;2023-05-23T05:59:56;15.43;;;9.00;;
67867;SDS011;54672;46.096;14.470;2023-05-23T06:02:21;11.20;;;8.73;;
67867;SDS011;54672;46.096;14.470;2023-05-23T06:04:47;15.73;;;9.13;;
67867;SDS011;54672;46.096;14.470;2023-05-23T06:07:12;15.75;;;9.27;;
67867;SDS011;54672;46.096;14.470;2023-05-23T06:09:37;12.73;;;9.55;;
67867;SDS011;54672;46.096;14.470;2023-05-23T06:12:03;13.52;;;9.05;;
67867;SDS011;54672;46.096;14.470;2023-05-23T06:14:28;20.30;;;9.80;;
67867;SDS011;54672;46.096;14.470;2023-05-23T06:16:54;11.40;;;9.00;;
67867;SDS011;54672;46.096;14.470;2023-05-23T06:19:19;11.32;;;8.30;;
67867;SDS011;54672;46.096;14.470;2023-05-23T06:21:44;12.02;;;9.13;;
67867;SDS011;54672;46.096;14.470;2023-05-23T06:24:10;11.52;;;8.38;;
67867;SDS011;54672;46.096;14.470;2023-05-23T06:26:35;11.55;;;8.52;;
67867;SDS011;54672;46.096;14.470;2023-05-23T06:29:01;13.70;;;8.02;;
67867;SDS011;54672;46.096;14.470;2023-05-23T06:31:27;12.75;;;8.35;;
67867;SDS011;54672;46.096;14.470;2023-05-23T06:33:52;13.82;;;8.38;;
67867;SDS011;54672;46.096;14.470;2023-05-23T06:36:18;11.07;;;8.63;;
67867;SDS011;54672;46.096;14.470;2023-05-23T06:38:43;13.57;;;8.85;;
67867;SDS011;54672;46.096;14.470;2023-05-23T06:41:09;13.90;;;9.50;;
67867;SDS011;54672;46.096;14.470;2023-05-23T06:43:34;14.15;;;9.52;;
67867;SDS011;54672;46.096;14.470;2023-05-23T06:46:00;14.10;;;9.38;;
67867;SDS011;54672;46.096;14.470;2023-05-23T06:48:25;16.25;;;10.30;;
67867;SDS011;54672;46.096;14.470;2023-05-23T06:50:51;14.05;;;10.38;;
67867;SDS011;54672;46.096;14.470;2023-05-23T06:53:16;13.93;;;10.07;;
67867;SDS011;54672;46.096;14.470;2023-05-23T06:55:42;15.85;;;10.98;;
67867;SDS011;54672;46.096;14.470;2023-05-23T06:58:07;14.02;;;10.63;;
67867;SDS011;54672;46.096;14.470;2023-05-23T07:00:33;11.80;;;9.30;;
67867;SDS011;54672;46.096;14.470;2023-05-23T07:02:58;14.38;;;9.80;;
67867;SDS011;54672;46.096;14.470;2023-05-23T07:05:28;12.65;;;8.80;;
67867;SDS011;54672;46.096;14.470;2023-05-23T07:07:53;13.65;;;8.75;;
67867;SDS011;54672;46.096;14.470;2023-05-23T07:10:19;11.27;;;7.90;;
67867;SDS011;54672;46.096;14.470;2023-05-23T07:12:45;11.07;;;7.70;;
67867;SDS011;54672;46.096;14.470;2023-05-23T07:15:11;11.15;;;8.18;;
67867;SDS011;54672;46.096;14.470;2023-05-23T07:17:36;11.30;;;7.32;;
67867;SDS011;54672;46.096;14.470;2023-05-23T07:20:02;11.73;;;7.97;;
67867;SDS011;54672;46.096;14.470;2023-05-23T07:22:28;11.48;;;8.00;;
67867;SDS011;54672;46.096;14.470;2023-05-23T07:24:54;10.43;;;7.60;;
67867;SDS011;54672;46.096;14.470;2023-05-23T07:27:20;11.15;;;7.78;;
67867;SDS011;54672;46.096;14.470;2023-05-23T07:29:45;11.27;;;8.48;;
67867;SDS011;54672;46.096;14.470;2023-05-23T07:32:11;10.32;;;8.48;;
67867;SDS011;54672;46.096;14.470;2023-05-23T07:34:36;9.80;;;8.07;;
67867;SDS011;54672;46.096;14.470;2023-05-23T07:37:02;14.13;;;9.02;;
67867;SDS011;54672;46.096;14.470;2023-05-23T07:39:27;17.83;;;8.88;;
67867;SDS011;54672;46.096;14.470;2023-05-23T07:41:52;11.85;;;9.18;;
67867;SDS011;54672;46.096;14.470;2023-05-23T07:44:18;12.95;;;8.88;;
67867;SDS011;54672;46.096;14.470;2023-05-23T07:46:43;18.05;;;9.45;;
67867;SDS011;54672;46.096;14.470;2023-05-23T07:49:09;12.60;;;9.43;;
67867;SDS011;54672;46.096;14.470;2023-05-23T07:51:34;15.38;;;9.77;;
67867;SDS011;54672;46.096;14.470;2023-05-23T07:54:00;15.55;;;9.50;;
67867;SDS011;54672;46.096;14.470;2023-05-23T07:56:25;13.13;;;9.05;;
67867;SDS011;54672;46.096;14.470;2023-05-23T07:58:51;19.67;;;10.40;;
67867;SDS011;54672;46.096;14.470;2023-05-23T08:01:16;18.33;;;9.20;;
67867;SDS011;54672;46.096;14.470;2023-05-23T08:03:42;21.35;;;9.07;;
67867;SDS011;54672;46.096;14.470;2023-05-23T08:06:07;12.38;;;9.23;;
67867;SDS011;54672;46.096;14.470;2023-05-23T08:08:33;14.40;;;8.38;;
67867;SDS011;54672;46.096;14.470;2023-05-23T08:11:00;14.65;;;8.98;;
67867;SDS011;54672;46.096;14.470;2023-05-23T08:13:25;14.48;;;8.98;;
67867;SDS011;54672;46.096;14.470;2023-05-23T08:15:51;14.05;;;9.02;;
67867;SDS011;54672;46.096;14.470;2023-05-23T08:18:16;12.27;;;9.05;;
67867;SDS011;54672;46.096;14.470;2023-05-23T08:20:42;13.98;;;9.35;;
67867;SDS011;54672;46.096;14.470;2023-05-23T08:23:07;17.13;;;8.43;;
67867;SDS011;54672;46.096;14.470;2023-05-23T08:25:33;13.52;;;8.90;;
67867;SDS011;54672;46.096;14.470;2023-05-23T08:27:59;27.70;;;8.40;;
67867;SDS011;54672;46.096;14.470;2023-05-23T08:30:25;11.45;;;8.88;;
67867;SDS011;54672;46.096;14.470;2023-05-23T08:32:52;15.02;;;8.93;;
67867;SDS011;54672;46.096;14.470;2023-05-23T08:35:19;13.88;;;9.30;;
67867;SDS011;54672;46.096;14.470;2023-05-23T08:37:45;12.07;;;8.30;;
67867;SDS011;54672;46.096;14.470;2023-05-23T08:40:17;15.15;;;9.25;;
67867;SDS011;54672;46.096;14.470;2023-05-23T08:42:45;14.85;;;8.40;;
67867;SDS011;54672;46.096;14.470;2023-05-23T08:45:14;14.18;;;8.18;;
67867;SDS011;54672;46.096;14.470;2023-05-23T08:47:41;12.32;;;7.35;;
67867;SDS011;54672;46.096;14.470;2023-05-23T08:50:11;14.80;;;7.45;;
67867;SDS011;54672;46.096;14.470;2023-05-23T08:52:59;15.45;;;7.72;;
67867;SDS011;54672;46.096;14.470;2023-05-23T08:55:25;10.57;;;7.28;;
67867;SDS011;54672;46.096;14.470;2023-05-23T08:57:52;12.07;;;6.75;;
67867;SDS011;54672;46.096;14.470;2023-05-23T09:00:18;11.05;;;7.20;;
67867;SDS011;54672;46.096;14.470;2023-05-23T09:02:45;11.13;;;7.32;;
67867;SDS011;54672;46.096;14.470;2023-05-23T09:05:11;19.88;;;7.07;;
67867;SDS011;54672;46.096;14.470;2023-05-23T09:07:37;10.27;;;6.68;;
67867;SDS011;54672;46.096;14.470;2023-05-23T09:10:04;7.90;;;6.03;;
67867;SDS011;54672;46.096;14.470;2023-05-23T09:12:31;10.93;;;6.75;;
67867;SDS011;54672;46.096;14.470;2023-05-23T09:14:57;9.73;;;7.18;;
67867;SDS011;54672;46.096;14.470;2023-05-23T09:17:23;12.20;;;6.45;;
67867;SDS011;54672;46.096;14.470;2023-05-23T09:19:48;13.50;;;7.10;;
67867;SDS011;54672;46.096;14.470;2023-05-23T09:22:14;19.73;;;7.45;;
67867;SDS011;54672;46.096;14.470;2023-05-23T09:24:39;10.25;;;7.03;;
67867;SDS011;54672;46.096;14.470;2023-05-23T09:27:05;12.13;;;6.68;;
67867;SDS011;54672;46.096;14.470;2023-05-23T09:29:31;9.50;;;6.07;;
67867;SDS011;54672;46.096;14.470;2023-05-23T09:32:09;10.25;;;6.38;;
67867;SDS011;54672;46.096;14.470;2023-05-23T09:34:39;8.10;;;5.85;;
67867;SDS011;54672;46.096;14.470;2023-05-23T09:37:06;11.77;;;7.43;;
67867;SDS011;54672;46.096;14.470;2023-05-23T09:39:35;12.20;;;6.82;;
67867;SDS011;54672;46.096;14.470;2023-05-23T09:42:01;9.95;;;6.43;;
67867;SDS011;54672;46.096;14.470;2023-05-23T09:44:26;14.13;;;6.50;;
67867;SDS011;54672;46.096;14.470;2023-05-23T09:46:52;9.55;;;6.97;;
67867;SDS011;54672;46.096;14.470;2023-05-23T09:49:17;9.02;;;6.70;;
67867;SDS011;54672;46.096;14.470;2023-05-23T09:51:43;9.93;;;6.60;;
67867;SDS011;54672;46.096;14.470;2023-05-23T09:54:21;7.90;;;5.95;;
67867;SDS011;54672;46.096;14.470;2023-05-23T09:56:46;8.77;;;5.55;;
67867;SDS011;54672;46.096;14.470;2023-05-23T09:59:13;11.48;;;6.43;;
67867;SDS011;54672;46.096;14.470;2023-05-23T10:01:41;11.02;;;6.15;;
67867;SDS011;54672;46.096;14.470;2023-05-23T10:04:09;10.48;;;6.20;;
67867;SDS011;54672;46.096;14.470;2023-05-23T10:06:43;10.20;;;6.00;;
67867;SDS011;54672;46.096;14.470;2023-05-23T10:09:18;7.78;;;5.63;;
67867;SDS011;54672;46.096;14.470;2023-05-23T10:14:30;9.07;;;6.68;;
67867;SDS011;54672;46.096;14.470;2023-05-23T10:17:13;10.25;;;6.00;;
67867;SDS011;54672;46.096;14.470;2023-05-23T10:20:00;13.13;;;6.25;;
67867;SDS011;54672;46.096;14.470;2023-05-23T10:22:32;13.38;;;5.88;;
67867;SDS011;54672;46.096;14.470;2023-05-23T10:25:02;8.55;;;5.30;;
67867;SDS011;54672;46.096;14.470;2023-05-23T10:27:28;9.63;;;5.90;;
67867;SDS011;54672;46.096;14.470;2023-05-23T10:29:54;9.45;;;5.88;;
67867;SDS011;54672;46.096;14.470;2023-05-23T10:32:19;8.63;;;5.78;;
67867;SDS011;54672;46.096;14.470;2023-05-23T10:34:53;9.80;;;6.22;;
67867;SDS011;54672;46.096;14.470;2023-05-23T10:40:33;7.53;;;5.70;;
67867;SDS011;54672;46.096;14.470;2023-05-23T10:46:20;8.00;;;5.80;;
67867;SDS011;54672;46.096;14.470;2023-05-23T10:48:46;8.55;;;5.60;;
67867;SDS011;54672;46.096;14.470;2023-05-23T10:51:15;10.95;;;5.53;;
67867;SDS011;54672;46.096;14.470;2023-05-23T10:53:42;9.13;;;5.40;;
67867;SDS011;54672;46.096;14.470;2023-05-23T10:56:08;8.93;;;5.82;;
67867;SDS011;54672;46.096;14.470;2023-05-23T10:58:35;10.77;;;5.70;;
67867;SDS011;54672;46.096;14.470;2023-05-23T11:01:06;7.95;;;6.00;;
67867;SDS011;54672;46.096;14.470;2023-05-23T11:03:34;8.48;;;5.47;;
67867;SDS011;54672;46.096;14.470;2023-05-23T11:06:02;9.45;;;5.70;;
67867;SDS011;54672;46.096;14.470;2023-05-23T11:08:38;7.97;;;5.50;;
67867;SDS011;54672;46.096;14.470;2023-05-23T11:11:06;10.48;;;6.18;;
67867;SDS011;54672;46.096;14.470;2023-05-23T11:13:52;7.70;;;5.80;;
67867;SDS011;54672;46.096;14.470;2023-05-23T11:16:22;8.13;;;5.53;;
67867;SDS011;54672;46.096;14.470;2023-05-23T11:21:42;11.13;;;6.07;;
67867;SDS011;54672;46.096;14.470;2023-05-23T11:24:09;10.27;;;5.20;;
67867;SDS011;54672;46.096;14.470;2023-05-23T11:26:35;8.23;;;5.15;;
67867;SDS011;54672;46.096;14.470;2023-05-23T11:29:00;10.95;;;5.60;;
67867;SDS011;54672;46.096;14.470;2023-05-23T11:31:28;6.63;;;5.22;;
67867;SDS011;54672;46.096;14.470;2023-05-23T11:33:54;8.55;;;5.68;;
67867;SDS011;54672;46.096;14.470;2023-05-23T11:36:20;8.10;;;5.05;;
67867;SDS011;54672;46.096;14.470;2023-05-23T11:38:51;7.32;;;5.40;;
67867;SDS011;54672;46.096;14.470;2023-05-23T11:41:17;8.77;;;5.20;;
67867;SDS011;54672;46.096;14.470;2023-05-23T11:43:49;6.10;;;4.20;;
67867;SDS011;54672;46.096;14.470;2023-05-23T11:46:16;7.25;;;4.15;;
67867;SDS011;54672;46.096;14.470;2023-05-23T11:48:47;8.60;;;4.20;;
67867;SDS011;54672;46.096;14.470;2023-05-23T11:51:13;8.00;;;4.40;;
67867;SDS011;54672;46.096;14.470;2023-05-23T11:53:39;8.77;;;4.18;;
67867;SDS011;54672;46.096;14.470;2023-05-23T11:56:05;5.05;;;4.05;;
67867;SDS011;54672;46.096;14.470;2023-05-23T11:58:34;4.85;;;3.55;;
67867;SDS011;54672;46.096;14.470;2023-05-23T12:01:10;6.00;;;4.00;;
67867;SDS011;54672;46.096;14.470;2023-05-23T12:03:44;6.88;;;4.03;;
67867;SDS011;54672;46.096;14.470;2023-05-23T12:06:13;5.95;;;4.18;;
67867;SDS011;54672;46.096;14.470;2023-05-23T12:08:40;5.63;;;4.00;;
67867;SDS011;54672;46.096;14.470;2023-05-23T12:11:05;6.88;;;3.33;;
67867;SDS011;54672;46.096;14.470;2023-05-23T12:13:31;7.75;;;3.88;;
67867;SDS011;54672;46.096;14.470;2023-05-23T12:15:58;4.43;;;3.70;;
67867;SDS011;54672;46.096;14.470;2023-05-23T12:18:26;5.68;;;3.75;;
67867;SDS011;54672;46.096;14.470;2023-05-23T12:20:53;6.30;;;3.28;;
67867;SDS011;54672;46.096;14.470;2023-05-23T12:23:22;8.77;;;4.43;;
67867;SDS011;54672;46.096;14.470;2023-05-23T12:25:49;4.72;;;3.63;;
67867;SDS011;54672;46.096;14.470;2023-05-23T12:28:33;6.25;;;4.00;;
67867;SDS011;54672;46.096;14.470;2023-05-23T12:31:07;3.97;;;2.85;;
67867;SDS011;54672;46.096;14.470;2023-05-23T12:33:43;5.90;;;3.30;;
67867;SDS011;54672;46.096;14.470;2023-05-23T12:36:10;6.38;;;3.35;;
67867;SDS011;54672;46.096;14.470;2023-05-23T12:38:36;5.88;;;3.13;;
67867;SDS011;54672;46.096;14.470;2023-05-23T12:41:11;4.35;;;3.22;;
67867;SDS011;54672;46.096;14.470;2023-05-23T12:43:47;5.53;;;3.33;;
67867;SDS011;54672;46.096;14.470;2023-05-23T12:46:14;5.07;;;3.20;;
67867;SDS011;54672;46.096;14.470;2023-05-23T12:48:40;3.78;;;3.10;;
67867;SDS011;54672;46.096;14.470;2023-05-23T12:51:05;5.68;;;2.97;;
67867;SDS011;54672;46.096;14.470;2023-05-23T12:53:30;6.70;;;3.70;;
67867;SDS011;54672;46.096;14.470;2023-05-23T12:55:56;4.43;;;3.05;;
67867;SDS011;54672;46.096;14.470;2023-05-23T12:58:21;4.90;;;3.25;;
67867;SDS011;54672;46.096;14.470;2023-05-23T13:00:47;4.28;;;2.92;;
67867;SDS011;54672;46.096;14.470;2023-05-23T13:03:13;4.85;;;3.40;;
67867;SDS011;54672;46.096;14.470;2023-05-23T13:05:38;5.60;;;3.30;;
67867;SDS011;54672;46.096;14.470;2023-05-23T13:08:04;6.68;;;3.80;;
67867;SDS011;54672;46.096;14.470;2023-05-23T13:10:30;5.60;;;3.28;;
67867;SDS011;54672;46.096;14.470;2023-05-23T13:12:56;6.10;;;3.53;;
67867;SDS011;54672;46.096;14.470;2023-05-23T13:15:21;4.60;;;3.60;;
67867;SDS011;54672;46.096;14.470;2023-05-23T13:17:46;5.68;;;3.40;;
67867;SDS011;54672;46.096;14.470;2023-05-23T13:20:12;5.10;;;3.58;;
67867;SDS011;54672;46.096;14.470;2023-05-23T13:22:38;6.50;;;3.85;;
67867;SDS011;54672;46.096;14.470;2023-05-23T13:25:04;5.03;;;3.22;;
67867;SDS011;54672;46.096;14.470;2023-05-23T13:27:31;4.82;;;3.53;;
67867;SDS011;54672;46.096;14.470;2023-05-23T13:29:56;5.45;;;3.83;;
67867;SDS011;54672;46.096;14.470;2023-05-23T13:32:22;6.20;;;4.00;;
67867;SDS011;54672;46.096;14.470;2023-05-23T13:34:47;6.20;;;3.92;;
67867;SDS011;54672;46.096;14.470;2023-05-23T13:37:12;7.03;;;3.85;;
67867;SDS011;54672;46.096;14.470;2023-05-23T13:39:38;6.13;;;4.25;;
67867;SDS011;54672;46.096;14.470;2023-05-23T13:42:03;6.85;;;4.10;;
67867;SDS011;54672;46.096;14.470;2023-05-23T13:44:29;4.57;;;3.95;;
67867;SDS011;54672;46.096;14.470;2023-05-23T13:46:56;5.50;;;3.67;;
67867;SDS011;54672;46.096;14.470;2023-05-23T13:49:22;7.18;;;3.90;;
67867;SDS011;54672;46.096;14.470;2023-05-23T13:51:47;5.93;;;3.72;;
67867;SDS011;54672;46.096;14.470;2023-05-23T13:54:13;4.95;;;3.47;;
67867;SDS011;54672;46.096;14.470;2023-05-23T13:56:39;7.15;;;3.78;;
67867;SDS011;54672;46.096;14.470;2023-05-23T13:59:05;4.63;;;3.28;;
67867;SDS011;54672;46.096;14.470;2023-05-23T14:01:30;6.90;;;3.53;;
67867;SDS011;54672;46.096;14.470;2023-05-23T14:03:56;7.05;;;3.85;;
67867;SDS011;54672;46.096;14.470;2023-05-23T14:06:21;7.57;;;4.13;;
67867;SDS011;54672;46.096;14.470;2023-05-23T14:08:47;7.15;;;4.18;;
67867;SDS011;54672;46.096;14.470;2023-05-23T14:11:12;7.07;;;4.20;;
67867;SDS011;54672;46.096;14.470;2023-05-23T14:13:38;8.93;;;4.50;;
67867;SDS011;54672;46.096;14.470;2023-05-23T14:16:03;9.13;;;4.22;;
67867;SDS011;54672;46.096;14.470;2023-05-23T14:18:29;8.38;;;4.88;;
67867;SDS011;54672;46.096;14.470;2023-05-23T14:20:54;7.25;;;4.82;;
67867;SDS011;54672;46.096;14.470;2023-05-23T14:23:21;8.13;;;4.95;;
67867;SDS011;54672;46.096;14.470;2023-05-23T14:25:47;7.55;;;4.90;;
67867;SDS011;54672;46.096;14.470;2023-05-23T14:28:12;8.70;;;4.97;;
67867;SDS011;54672;46.096;14.470;2023-05-23T14:30:38;17.45;;;6.10;;
67867;SDS011;54672;46.096;14.470;2023-05-23T14:33:03;6.95;;;4.63;;
67867;SDS011;54672;46.096;14.470;2023-05-23T14:35:29;8.55;;;4.50;;
67867;SDS011;54672;46.096;14.470;2023-05-23T14:37:54;6.80;;;4.65;;
67867;SDS011;54672;46.096;14.470;2023-05-23T14:40:20;6.70;;;4.85;;
67867;SDS011;54672;46.096;14.470;2023-05-23T14:42:45;8.18;;;4.88;;
67867;SDS011;54672;46.096;14.470;2023-05-23T14:45:11;8.48;;;4.63;;
67867;SDS011;54672;46.096;14.470;2023-05-23T14:47:36;6.32;;;4.20;;